sensor_id;sensor_type;location;lat;lon;timestamp;temperature;humidity
25556;DHT22;13447;57.174;-2.112;2023-09-08T00:02:12;17.30;1.00
25556;DHT22;13447;57.174;-2.112;2023-09-08T00:04:39;17.30;1.00
25556;DHT22;13447;57.174;-2.112;2023-09-08T00:07:06;17.30;1.00
25556;DHT22;13447;57.174;-2.112;2023-09-08T00:09:33;17.30;1.00
25556;DHT22;13447;57.174;-2.112;2023-09-08T00:12:00;17.30;1.00
25556;DHT22;13447;57.174;-2.112;2023-09-08T00:14:26;17.30;1.00
25556;DHT22;13447;57.174;-2.112;2023-09-08T00:16:53;17.30;1.00
25556;DHT22;13447;57.174;-2.112;2023-09-08T00:19:22;17.30;1.00
25556;DHT22;13447;57.174;-2.112;2023-09-08T00:21:50;17.30;1.00
25556;DHT22;13447;57.174;-2.112;2023-09-08T00:24:16;17.30;1.00
25556;DHT22;13447;57.174;-2.112;2023-09-08T00:26:44;17.20;1.00
25556;DHT22;13447;57.174;-2.112;2023-09-08T00:29:11;17.20;1.00
25556;DHT22;13447;57.174;-2.112;2023-09-08T00:31:38;17.20;1.00
25556;DHT22;13447;57.174;-2.112;2023-09-08T00:34:05;17.20;1.00
25556;DHT22;13447;57.174;-2.112;2023-09-08T00:36:33;17.10;1.00
25556;DHT22;13447;57.174;-2.112;2023-09-08T00:39:00;17.20;1.00
25556;DHT22;13447;57.174;-2.112;2023-09-08T00:41:27;17.10;1.00
25556;DHT22;13447;57.174;-2.112;2023-09-08T00:43:54;17.10;1.00
25556;DHT22;13447;57.174;-2.112;2023-09-08T00:46:21;17.10;1.00
25556;DHT22;13447;57.174;-2.112;2023-09-08T00:48:48;17.10;1.00
25556;DHT22;13447;57.174;-2.112;2023-09-08T00:51:14;17.10;1.00
25556;DHT22;13447;57.174;-2.112;2023-09-08T00:53:41;17.10;1.00
25556;DHT22;13447;57.174;-2.112;2023-09-08T00:56:08;17.10;1.00
25556;DHT22;13447;57.174;-2.112;2023-09-08T00:58:36;17.00;1.00
25556;DHT22;13447;57.174;-2.112;2023-09-08T01:01:03;17.10;1.00
25556;DHT22;13447;57.174;-2.112;2023-09-08T01:03:32;17.00;1.00
25556;DHT22;13447;57.174;-2.112;2023-09-08T01:05:59;17.00;1.00
25556;DHT22;13447;57.174;-2.112;2023-09-08T01:08:26;16.90;1.00
25556;DHT22;13447;57.174;-2.112;2023-09-08T01:10:54;17.00;1.00
25556;DHT22;13447;57.174;-2.112;2023-09-08T01:13:21;17.00;1.00
25556;DHT22;13447;57.174;-2.112;2023-09-08T01:15:49;17.00;1.00
25556;DHT22;13447;57.174;-2.112;2023-09-08T01:18:16;16.90;1.00
25556;DHT22;13447;57.174;-2.112;2023-09-08T01:23:35;16.90;1.00
25556;DHT22;13447;57.174;-2.112;2023-09-08T01:26:08;16.90;1.00
25556;DHT22;13447;57.174;-2.112;2023-09-08T01:28:35;16.80;1.00
25556;DHT22;13447;57.174;-2.112;2023-09-08T01:31:04;16.80;1.00
25556;DHT22;13447;57.174;-2.112;2023-09-08T01:33:31;16.80;1.00
25556;DHT22;13447;57.174;-2.112;2023-09-08T01:35:58;16.80;1.00
25556;DHT22;13447;57.174;-2.112;2023-09-08T01:38:25;16.80;1.00
25556;DHT22;13447;57.174;-2.112;2023-09-08T01:40:52;16.80;1.00
25556;DHT22;13447;57.174;-2.112;2023-09-08T01:43:19;16.80;1.00
25556;DHT22;13447;57.174;-2.112;2023-09-08T01:45:46;16.80;1.00
25556;DHT22;13447;57.174;-2.112;2023-09-08T01:48:13;16.80;1.00
25556;DHT22;13447;57.174;-2.112;2023-09-08T01:50:39;16.80;1.00
25556;DHT22;13447;57.174;-2.112;2023-09-08T01:53:06;16.70;1.00
25556;DHT22;13447;57.174;-2.112;2023-09-08T01:55:33;16.70;1.00
25556;DHT22;13447;57.174;-2.112;2023-09-08T01:58:00;16.70;1.00
25556;DHT22;13447;57.174;-2.112;2023-09-08T02:00:27;16.70;1.00
25556;DHT22;13447;57.174;-2.112;2023-09-08T02:02:54;16.60;1.00
25556;DHT22;13447;57.174;-2.112;2023-09-08T02:05:21;16.60;1.00
25556;DHT22;13447;57.174;-2.112;2023-09-08T02:07:48;16.60;1.00
25556;DHT22;13447;57.174;-2.112;2023-09-08T02:10:16;16.60;1.00
25556;DHT22;13447;57.174;-2.112;2023-09-08T02:12:42;16.50;1.00
25556;DHT22;13447;57.174;-2.112;2023-09-08T02:15:09;16.50;1.00
25556;DHT22;13447;57.174;-2.112;2023-09-08T02:17:37;16.50;1.00
25556;DHT22;13447;57.174;-2.112;2023-09-08T02:20:05;16.50;1.00
25556;DHT22;13447;57.174;-2.112;2023-09-08T02:22:31;16.50;1.00
25556;DHT22;13447;57.174;-2.112;2023-09-08T02:24:58;16.40;1.00
25556;DHT22;13447;57.174;-2.112;2023-09-08T02:27:25;16.50;1.00
25556;DHT22;13447;57.174;-2.112;2023-09-08T02:29:52;16.40;1.00
25556;DHT22;13447;57.174;-2.112;2023-09-08T02:32:19;16.50;1.00
25556;DHT22;13447;57.174;-2.112;2023-09-08T02:34:46;16.50;1.00
25556;DHT22;13447;57.174;-2.112;2023-09-08T02:37:14;16.50;1.00
25556;DHT22;13447;57.174;-2.112;2023-09-08T02:39:41;16.40;1.00
25556;DHT22;13447;57.174;-2.112;2023-09-08T02:42:08;16.40;1.00
25556;DHT22;13447;57.174;-2.112;2023-09-08T02:44:35;16.40;1.00
25556;DHT22;13447;57.174;-2.112;2023-09-08T02:47:02;16.30;1.00
25556;DHT22;13447;57.174;-2.112;2023-09-08T02:51:56;16.30;1.00
25556;DHT22;13447;57.174;-2.112;2023-09-08T02:54:23;16.20;1.00
25556;DHT22;13447;57.174;-2.112;2023-09-08T02:56:50;16.20;1.00
25556;DHT22;13447;57.174;-2.112;2023-09-08T02:59:16;16.20;1.00
25556;DHT22;13447;57.174;-2.112;2023-09-08T03:01:43;16.10;1.00
25556;DHT22;13447;57.174;-2.112;2023-09-08T03:04:10;16.10;1.00
25556;DHT22;13447;57.174;-2.112;2023-09-08T03:06:37;16.10;1.00
25556;DHT22;13447;57.174;-2.112;2023-09-08T03:09:04;16.10;1.00
25556;DHT22;13447;57.174;-2.112;2023-09-08T03:11:31;16.10;1.00
25556;DHT22;13447;57.174;-2.112;2023-09-08T03:13:58;16.10;1.00
25556;DHT22;13447;57.174;-2.112;2023-09-08T03:16:24;16.20;1.00
25556;DHT22;13447;57.174;-2.112;2023-09-08T03:18:51;16.10;1.00
25556;DHT22;13447;57.174;-2.112;2023-09-08T03:21:18;16.00;1.00
25556;DHT22;13447;57.174;-2.112;2023-09-08T03:23:45;15.90;1.00
25556;DHT22;13447;57.174;-2.112;2023-09-08T03:26:12;15.90;1.00
25556;DHT22;13447;57.174;-2.112;2023-09-08T03:28:41;15.90;1.00
25556;DHT22;13447;57.174;-2.112;2023-09-08T03:31:08;15.80;1.00
25556;DHT22;13447;57.174;-2.112;2023-09-08T03:33:35;15.80;1.00
25556;DHT22;13447;57.174;-2.112;2023-09-08T03:36:02;15.90;1.00
25556;DHT22;13447;57.174;-2.112;2023-09-08T03:38:29;15.90;1.00
25556;DHT22;13447;57.174;-2.112;2023-09-08T03:40:56;15.90;1.00
25556;DHT22;13447;57.174;-2.112;2023-09-08T03:43:23;15.90;1.00
25556;DHT22;13447;57.174;-2.112;2023-09-08T03:45:50;15.90;1.00
25556;DHT22;13447;57.174;-2.112;2023-09-08T03:48:17;15.80;1.00
25556;DHT22;13447;57.174;-2.112;2023-09-08T03:50:44;15.80;1.00
25556;DHT22;13447;57.174;-2.112;2023-09-08T03:53:12;15.70;1.00
25556;DHT22;13447;57.174;-2.112;2023-09-08T03:55:39;15.80;1.00
25556;DHT22;13447;57.174;-2.112;2023-09-08T03:58:06;15.80;1.00
25556;DHT22;13447;57.174;-2.112;2023-09-08T04:00:33;15.70;1.00
25556;DHT22;13447;57.174;-2.112;2023-09-08T04:02:59;15.70;1.00
25556;DHT22;13447;57.174;-2.112;2023-09-08T04:05:26;15.70;1.00
25556;DHT22;13447;57.174;-2.112;2023-09-08T04:07:53;15.70;1.00
25556;DHT22;13447;57.174;-2.112;2023-09-08T04:10:20;15.60;1.00
25556;DHT22;13447;57.174;-2.112;2023-09-08T04:12:47;15.60;1.00
25556;DHT22;13447;57.174;-2.112;2023-09-08T04:15:14;15.60;1.00
25556;DHT22;13447;57.174;-2.112;2023-09-08T04:17:40;15.60;1.00
25556;DHT22;13447;57.174;-2.112;2023-09-08T04:20:08;15.60;1.00
25556;DHT22;13447;57.174;-2.112;2023-09-08T04:22:35;15.60;1.00
25556;DHT22;13447;57.174;-2.112;2023-09-08T04:25:02;15.50;1.00
25556;DHT22;13447;57.174;-2.112;2023-09-08T04:27:29;15.50;1.00
25556;DHT22;13447;57.174;-2.112;2023-09-08T04:29:56;15.50;1.00
25556;DHT22;13447;57.174;-2.112;2023-09-08T04:32:22;15.50;1.00
25556;DHT22;13447;57.174;-2.112;2023-09-08T04:34:49;15.50;1.00
25556;DHT22;13447;57.174;-2.112;2023-09-08T04:37:16;15.50;1.00
25556;DHT22;13447;57.174;-2.112;2023-09-08T04:39:43;15.50;1.00
25556;DHT22;13447;57.174;-2.112;2023-09-08T04:42:10;15.40;1.00
25556;DHT22;13447;57.174;-2.112;2023-09-08T04:44:37;15.50;1.00
25556;DHT22;13447;57.174;-2.112;2023-09-08T04:47:04;15.40;1.00
25556;DHT22;13447;57.174;-2.112;2023-09-08T04:49:31;15.40;1.00
25556;DHT22;13447;57.174;-2.112;2023-09-08T04:51:58;15.40;1.00
25556;DHT22;13447;57.174;-2.112;2023-09-08T04:54:25;15.30;1.00
25556;DHT22;13447;57.174;-2.112;2023-09-08T04:56:54;15.30;1.00
25556;DHT22;13447;57.174;-2.112;2023-09-08T04:59:38;15.30;1.00
25556;DHT22;13447;57.174;-2.112;2023-09-08T05:02:06;15.30;1.00
25556;DHT22;13447;57.174;-2.112;2023-09-08T05:04:33;15.20;1.00
25556;DHT22;13447;57.174;-2.112;2023-09-08T05:06:59;15.20;1.00
25556;DHT22;13447;57.174;-2.112;2023-09-08T05:09:26;15.20;1.00
25556;DHT22;13447;57.174;-2.112;2023-09-08T05:11:53;15.20;1.00
25556;DHT22;13447;57.174;-2.112;2023-09-08T05:14:20;15.20;1.00
25556;DHT22;13447;57.174;-2.112;2023-09-08T05:16:47;15.20;1.00
25556;DHT22;13447;57.174;-2.112;2023-09-08T05:19:16;15.20;1.00
25556;DHT22;13447;57.174;-2.112;2023-09-08T05:21:43;15.20;1.00
25556;DHT22;13447;57.174;-2.112;2023-09-08T05:24:10;15.30;1.00
25556;DHT22;13447;57.174;-2.112;2023-09-08T05:26:37;15.30;1.00
25556;DHT22;13447;57.174;-2.112;2023-09-08T05:29:05;15.20;1.00
25556;DHT22;13447;57.174;-2.112;2023-09-08T05:31:32;15.30;1.00
25556;DHT22;13447;57.174;-2.112;2023-09-08T05:33:59;15.30;1.00
25556;DHT22;13447;57.174;-2.112;2023-09-08T05:36:26;15.40;1.00
25556;DHT22;13447;57.174;-2.112;2023-09-08T05:38:53;15.40;1.00
25556;DHT22;13447;57.174;-2.112;2023-09-08T05:41:20;15.40;1.00
25556;DHT22;13447;57.174;-2.112;2023-09-08T05:43:46;15.40;1.00
25556;DHT22;13447;57.174;-2.112;2023-09-08T05:46:13;15.40;1.00
25556;DHT22;13447;57.174;-2.112;2023-09-08T05:48:40;15.40;1.00
25556;DHT22;13447;57.174;-2.112;2023-09-08T05:51:07;15.40;1.00
25556;DHT22;13447;57.174;-2.112;2023-09-08T05:53:34;15.40;1.00
25556;DHT22;13447;57.174;-2.112;2023-09-08T05:56:02;15.40;1.00
25556;DHT22;13447;57.174;-2.112;2023-09-08T05:58:30;15.40;1.00
25556;DHT22;13447;57.174;-2.112;2023-09-08T06:00:56;15.40;1.00
25556;DHT22;13447;57.174;-2.112;2023-09-08T06:03:23;15.50;1.00
25556;DHT22;13447;57.174;-2.112;2023-09-08T06:05:50;15.50;1.00
25556;DHT22;13447;57.174;-2.112;2023-09-08T06:08:17;15.50;1.00
25556;DHT22;13447;57.174;-2.112;2023-09-08T06:10:44;15.60;1.00
25556;DHT22;13447;57.174;-2.112;2023-09-08T06:13:11;15.60;1.00
25556;DHT22;13447;57.174;-2.112;2023-09-08T06:15:38;15.70;1.00
25556;DHT22;13447;57.174;-2.112;2023-09-08T06:18:05;15.70;1.00
25556;DHT22;13447;57.174;-2.112;2023-09-08T06:20:32;15.60;1.00
25556;DHT22;13447;57.174;-2.112;2023-09-08T06:22:59;15.70;1.00
25556;DHT22;13447;57.174;-2.112;2023-09-08T06:25:26;15.70;1.00
25556;DHT22;13447;57.174;-2.112;2023-09-08T06:27:54;15.70;1.00
25556;DHT22;13447;57.174;-2.112;2023-09-08T06:30:21;15.70;1.00
25556;DHT22;13447;57.174;-2.112;2023-09-08T06:32:48;15.80;1.00
25556;DHT22;13447;57.174;-2.112;2023-09-08T06:35:16;16.00;1.00
25556;DHT22;13447;57.174;-2.112;2023-09-08T06:37:43;15.90;1.00
25556;DHT22;13447;57.174;-2.112;2023-09-08T06:42:37;15.90;1.00
25556;DHT22;13447;57.174;-2.112;2023-09-08T06:45:03;16.00;1.00
25556;DHT22;13447;57.174;-2.112;2023-09-08T06:47:30;16.10;1.00
25556;DHT22;13447;57.174;-2.112;2023-09-08T06:49:57;16.20;1.00
25556;DHT22;13447;57.174;-2.112;2023-09-08T06:52:24;16.30;1.00
25556;DHT22;13447;57.174;-2.112;2023-09-08T06:54:51;16.40;1.00
25556;DHT22;13447;57.174;-2.112;2023-09-08T06:57:18;16.40;1.00
25556;DHT22;13447;57.174;-2.112;2023-09-08T06:59:46;16.40;1.00
25556;DHT22;13447;57.174;-2.112;2023-09-08T07:02:13;16.40;1.00
25556;DHT22;13447;57.174;-2.112;2023-09-08T07:04:40;16.60;1.00
25556;DHT22;13447;57.174;-2.112;2023-09-08T07:07:07;16.60;1.00
25556;DHT22;13447;57.174;-2.112;2023-09-08T07:09:34;16.60;1.00
25556;DHT22;13447;57.174;-2.112;2023-09-08T07:12:03;16.60;1.00
25556;DHT22;13447;57.174;-2.112;2023-09-08T07:14:30;16.70;1.00
25556;DHT22;13447;57.174;-2.112;2023-09-08T07:16:57;16.80;1.00
25556;DHT22;13447;57.174;-2.112;2023-09-08T07:19:25;17.00;1.00
25556;DHT22;13447;57.174;-2.112;2023-09-08T07:21:53;17.10;1.00
25556;DHT22;13447;57.174;-2.112;2023-09-08T07:24:19;17.20;1.00
25556;DHT22;13447;57.174;-2.112;2023-09-08T07:26:47;17.30;1.00
25556;DHT22;13447;57.174;-2.112;2023-09-08T07:29:14;17.40;1.00
25556;DHT22;13447;57.174;-2.112;2023-09-08T07:31:41;17.50;1.00
25556;DHT22;13447;57.174;-2.112;2023-09-08T07:34:08;17.60;1.00
25556;DHT22;13447;57.174;-2.112;2023-09-08T07:36:35;17.70;1.00
25556;DHT22;13447;57.174;-2.112;2023-09-08T07:39:02;17.80;1.00
25556;DHT22;13447;57.174;-2.112;2023-09-08T07:41:29;18.00;1.00
25556;DHT22;13447;57.174;-2.112;2023-09-08T07:43:56;18.10;1.00
25556;DHT22;13447;57.174;-2.112;2023-09-08T07:46:23;18.30;1.00
25556;DHT22;13447;57.174;-2.112;2023-09-08T07:48:50;18.40;1.00
25556;DHT22;13447;57.174;-2.112;2023-09-08T07:51:17;18.50;1.00
25556;DHT22;13447;57.174;-2.112;2023-09-08T07:53:44;18.70;1.00
25556;DHT22;13447;57.174;-2.112;2023-09-08T07:56:11;18.80;1.00
25556;DHT22;13447;57.174;-2.112;2023-09-08T07:58:37;19.00;1.00
25556;DHT22;13447;57.174;-2.112;2023-09-08T08:01:06;19.10;1.00
25556;DHT22;13447;57.174;-2.112;2023-09-08T08:03:33;19.10;1.00
25556;DHT22;13447;57.174;-2.112;2023-09-08T08:06:02;19.20;1.00
25556;DHT22;13447;57.174;-2.112;2023-09-08T08:08:29;19.30;1.00
25556;DHT22;13447;57.174;-2.112;2023-09-08T08:10:57;19.40;1.00
25556;DHT22;13447;57.174;-2.112;2023-09-08T08:13:24;19.60;1.00
25556;DHT22;13447;57.174;-2.112;2023-09-08T08:15:51;19.80;1.00
25556;DHT22;13447;57.174;-2.112;2023-09-08T08:18:17;20.00;1.00
25556;DHT22;13447;57.174;-2.112;2023-09-08T08:20:45;20.20;1.00
25556;DHT22;13447;57.174;-2.112;2023-09-08T08:23:12;20.40;1.00
25556;DHT22;13447;57.174;-2.112;2023-09-08T08:25:38;20.50;99.90
25556;DHT22;13447;57.174;-2.112;2023-09-08T08:28:05;20.70;99.90
25556;DHT22;13447;57.174;-2.112;2023-09-08T08:30:32;20.80;99.90
25556;DHT22;13447;57.174;-2.112;2023-09-08T08:32:59;20.80;99.90
25556;DHT22;13447;57.174;-2.112;2023-09-08T08:35:26;21.00;99.90
25556;DHT22;13447;57.174;-2.112;2023-09-08T08:37:53;21.00;99.90
25556;DHT22;13447;57.174;-2.112;2023-09-08T08:40:20;21.00;99.90
25556;DHT22;13447;57.174;-2.112;2023-09-08T08:42:47;21.10;99.90
25556;DHT22;13447;57.174;-2.112;2023-09-08T08:45:14;21.20;99.90
25556;DHT22;13447;57.174;-2.112;2023-09-08T08:47:43;21.30;99.90
25556;DHT22;13447;57.174;-2.112;2023-09-08T08:50:10;21.70;99.90
25556;DHT22;13447;57.174;-2.112;2023-09-08T08:52:37;22.40;99.90
25556;DHT22;13447;57.174;-2.112;2023-09-08T08:55:04;23.10;99.90
25556;DHT22;13447;57.174;-2.112;2023-09-08T08:57:31;23.40;99.90
25556;DHT22;13447;57.174;-2.112;2023-09-08T08:59:59;23.60;99.90
25556;DHT22;13447;57.174;-2.112;2023-09-08T09:02:26;23.80;99.90
25556;DHT22;13447;57.174;-2.112;2023-09-08T09:04:54;23.90;84.40
25556;DHT22;13447;57.174;-2.112;2023-09-08T09:07:21;24.10;78.00
25556;DHT22;13447;57.174;-2.112;2023-09-08T09:09:48;24.30;55.40
25556;DHT22;13447;57.174;-2.112;2023-09-08T09:12:15;24.50;61.80
25556;DHT22;13447;57.174;-2.112;2023-09-08T09:14:46;24.90;52.10
25556;DHT22;13447;57.174;-2.112;2023-09-08T09:17:16;25.00;1.00
25556;DHT22;13447;57.174;-2.112;2023-09-08T09:19:43;25.10;1.00
25556;DHT22;13447;57.174;-2.112;2023-09-08T09:22:10;25.30;1.00
25556;DHT22;13447;57.174;-2.112;2023-09-08T09:24:37;25.50;1.00
25556;DHT22;13447;57.174;-2.112;2023-09-08T09:27:07;25.40;1.00
25556;DHT22;13447;57.174;-2.112;2023-09-08T09:29:44;24.90;1.00
25556;DHT22;13447;57.174;-2.112;2023-09-08T09:32:13;24.50;1.00
25556;DHT22;13447;57.174;-2.112;2023-09-08T09:34:47;24.20;1.00
25556;DHT22;13447;57.174;-2.112;2023-09-08T09:37:14;24.20;1.00
25556;DHT22;13447;57.174;-2.112;2023-09-08T09:39:41;24.20;1.00
25556;DHT22;13447;57.174;-2.112;2023-09-08T09:42:07;24.20;1.00
25556;DHT22;13447;57.174;-2.112;2023-09-08T09:44:34;24.30;1.00
25556;DHT22;13447;57.174;-2.112;2023-09-08T09:47:01;24.20;1.00
25556;DHT22;13447;57.174;-2.112;2023-09-08T09:49:28;24.20;1.00
25556;DHT22;13447;57.174;-2.112;2023-09-08T09:51:58;24.00;1.00
25556;DHT22;13447;57.174;-2.112;2023-09-08T09:54:25;23.90;1.00
25556;DHT22;13447;57.174;-2.112;2023-09-08T09:56:52;23.60;1.00
25556;DHT22;13447;57.174;-2.112;2023-09-08T09:59:19;23.60;1.00
25556;DHT22;13447;57.174;-2.112;2023-09-08T10:01:46;23.60;1.00
25556;DHT22;13447;57.174;-2.112;2023-09-08T10:04:13;23.10;1.00
25556;DHT22;13447;57.174;-2.112;2023-09-08T10:06:42;23.10;1.00
25556;DHT22;13447;57.174;-2.112;2023-09-08T10:09:10;23.30;1.00
25556;DHT22;13447;57.174;-2.112;2023-09-08T10:11:45;22.80;1.00
25556;DHT22;13447;57.174;-2.112;2023-09-08T10:14:17;22.70;1.00
25556;DHT22;13447;57.174;-2.112;2023-09-08T10:16:44;22.90;1.00
25556;DHT22;13447;57.174;-2.112;2023-09-08T10:19:12;23.00;1.00
25556;DHT22;13447;57.174;-2.112;2023-09-08T10:21:39;23.00;1.00
25556;DHT22;13447;57.174;-2.112;2023-09-08T10:24:14;23.30;1.00
25556;DHT22;13447;57.174;-2.112;2023-09-08T10:26:46;23.70;1.00
25556;DHT22;13447;57.174;-2.112;2023-09-08T10:29:14;23.60;1.00
25556;DHT22;13447;57.174;-2.112;2023-09-08T10:31:41;23.40;1.00
25556;DHT22;13447;57.174;-2.112;2023-09-08T10:34:08;22.80;1.00
25556;DHT22;13447;57.174;-2.112;2023-09-08T10:36:35;22.60;1.00
25556;DHT22;13447;57.174;-2.112;2023-09-08T10:41:48;23.10;1.00
25556;DHT22;13447;57.174;-2.112;2023-09-08T10:44:15;23.10;1.00
25556;DHT22;13447;57.174;-2.112;2023-09-08T10:46:43;23.20;1.00
25556;DHT22;13447;57.174;-2.112;2023-09-08T10:49:11;23.40;1.00
25556;DHT22;13447;57.174;-2.112;2023-09-08T10:51:39;23.80;1.00
25556;DHT22;13447;57.174;-2.112;2023-09-08T10:54:06;24.10;1.00
25556;DHT22;13447;57.174;-2.112;2023-09-08T10:56:53;24.20;1.00
25556;DHT22;13447;57.174;-2.112;2023-09-08T10:59:22;24.60;1.00
25556;DHT22;13447;57.174;-2.112;2023-09-08T11:01:49;24.90;1.00
25556;DHT22;13447;57.174;-2.112;2023-09-08T11:04:16;25.00;1.00
25556;DHT22;13447;57.174;-2.112;2023-09-08T11:06:46;25.10;1.00
25556;DHT22;13447;57.174;-2.112;2023-09-08T11:09:12;25.30;1.00
25556;DHT22;13447;57.174;-2.112;2023-09-08T11:11:40;25.30;1.00
25556;DHT22;13447;57.174;-2.112;2023-09-08T11:14:08;25.20;1.00
25556;DHT22;13447;57.174;-2.112;2023-09-08T11:16:35;25.10;1.00
25556;DHT22;13447;57.174;-2.112;2023-09-08T11:19:02;25.50;1.00
25556;DHT22;13447;57.174;-2.112;2023-09-08T11:21:31;25.70;1.00
25556;DHT22;13447;57.174;-2.112;2023-09-08T11:24:02;25.90;1.00
25556;DHT22;13447;57.174;-2.112;2023-09-08T11:26:34;25.90;1.00
25556;DHT22;13447;57.174;-2.112;2023-09-08T11:29:01;25.80;1.00
25556;DHT22;13447;57.174;-2.112;2023-09-08T11:31:29;25.90;1.00
25556;DHT22;13447;57.174;-2.112;2023-09-08T11:33:56;25.70;1.00
25556;DHT22;13447;57.174;-2.112;2023-09-08T11:36:23;25.80;1.00
25556;DHT22;13447;57.174;-2.112;2023-09-08T11:38:50;26.00;1.00
25556;DHT22;13447;57.174;-2.112;2023-09-08T11:41:16;25.90;1.00
25556;DHT22;13447;57.174;-2.112;2023-09-08T11:43:43;26.10;1.00
25556;DHT22;13447;57.174;-2.112;2023-09-08T11:46:11;26.30;1.00
25556;DHT22;13447;57.174;-2.112;2023-09-08T11:48:38;26.40;1.00
25556;DHT22;13447;57.174;-2.112;2023-09-08T11:51:08;26.30;1.00
25556;DHT22;13447;57.174;-2.112;2023-09-08T11:53:35;26.40;1.00
25556;DHT22;13447;57.174;-2.112;2023-09-08T11:56:03;26.70;1.00
25556;DHT22;13447;57.174;-2.112;2023-09-08T11:58:30;26.60;1.00
25556;DHT22;13447;57.174;-2.112;2023-09-08T12:00:57;26.70;1.00
25556;DHT22;13447;57.174;-2.112;2023-09-08T12:03:24;26.70;1.00
25556;DHT22;13447;57.174;-2.112;2023-09-08T12:05:52;26.80;1.00
25556;DHT22;13447;57.174;-2.112;2023-09-08T12:08:19;26.80;1.00
25556;DHT22;13447;57.174;-2.112;2023-09-08T12:10:46;26.70;1.00
25556;DHT22;13447;57.174;-2.112;2023-09-08T12:13:13;27.10;1.00
25556;DHT22;13447;57.174;-2.112;2023-09-08T12:15:41;26.70;1.00
25556;DHT22;13447;57.174;-2.112;2023-09-08T12:18:09;26.80;1.00
25556;DHT22;13447;57.174;-2.112;2023-09-08T12:20:37;26.90;1.00
25556;DHT22;13447;57.174;-2.112;2023-09-08T12:23:05;27.20;1.00
25556;DHT22;13447;57.174;-2.112;2023-09-08T12:25:43;27.40;1.00
25556;DHT22;13447;57.174;-2.112;2023-09-08T12:28:10;27.30;1.00
25556;DHT22;13447;57.174;-2.112;2023-09-08T12:30:37;27.10;1.00
25556;DHT22;13447;57.174;-2.112;2023-09-08T12:33:05;27.10;1.00
25556;DHT22;13447;57.174;-2.112;2023-09-08T12:35:32;27.40;1.00
25556;DHT22;13447;57.174;-2.112;2023-09-08T12:40:26;27.50;1.00
25556;DHT22;13447;57.174;-2.112;2023-09-08T12:42:54;27.50;1.00
25556;DHT22;13447;57.174;-2.112;2023-09-08T12:45:32;27.40;1.00
25556;DHT22;13447;57.174;-2.112;2023-09-08T12:48:00;27.10;1.00
25556;DHT22;13447;57.174;-2.112;2023-09-08T12:50:28;27.40;1.00
25556;DHT22;13447;57.174;-2.112;2023-09-08T12:52:55;27.20;1.00
25556;DHT22;13447;57.174;-2.112;2023-09-08T12:55:22;27.00;1.00
25556;DHT22;13447;57.174;-2.112;2023-09-08T12:57:49;27.10;1.00
25556;DHT22;13447;57.174;-2.112;2023-09-08T13:00:16;26.70;1.00
25556;DHT22;13447;57.174;-2.112;2023-09-08T13:02:44;26.80;1.00
25556;DHT22;13447;57.174;-2.112;2023-09-08T13:05:10;26.90;1.00
25556;DHT22;13447;57.174;-2.112;2023-09-08T13:07:37;26.80;1.00
25556;DHT22;13447;57.174;-2.112;2023-09-08T13:10:05;27.00;1.00
25556;DHT22;13447;57.174;-2.112;2023-09-08T13:12:32;27.00;1.00
25556;DHT22;13447;57.174;-2.112;2023-09-08T13:14:59;27.30;1.00
25556;DHT22;13447;57.174;-2.112;2023-09-08T13:17:26;27.30;1.00
25556;DHT22;13447;57.174;-2.112;2023-09-08T13:19:53;26.90;1.00
25556;DHT22;13447;57.174;-2.112;2023-09-08T13:22:21;26.50;1.00
25556;DHT22;13447;57.174;-2.112;2023-09-08T13:24:48;26.30;1.00
25556;DHT22;13447;57.174;-2.112;2023-09-08T13:27:15;26.30;1.00
25556;DHT22;13447;57.174;-2.112;2023-09-08T13:29:44;26.40;1.00
25556;DHT22;13447;57.174;-2.112;2023-09-08T13:32:11;26.30;1.00
25556;DHT22;13447;57.174;-2.112;2023-09-08T13:34:38;25.80;1.00
25556;DHT22;13447;57.174;-2.112;2023-09-08T13:37:05;25.30;1.00
25556;DHT22;13447;57.174;-2.112;2023-09-08T13:39:32;24.70;1.00
25556;DHT22;13447;57.174;-2.112;2023-09-08T13:42:00;24.20;1.00
25556;DHT22;13447;57.174;-2.112;2023-09-08T13:44:27;24.00;1.00
25556;DHT22;13447;57.174;-2.112;2023-09-08T13:46:54;23.70;1.00
25556;DHT22;13447;57.174;-2.112;2023-09-08T13:49:22;23.50;1.00
25556;DHT22;13447;57.174;-2.112;2023-09-08T13:51:51;23.50;1.00
25556;DHT22;13447;57.174;-2.112;2023-09-08T13:54:22;23.50;1.00
25556;DHT22;13447;57.174;-2.112;2023-09-08T13:57:01;23.20;1.00
25556;DHT22;13447;57.174;-2.112;2023-09-08T13:59:33;23.20;1.00
25556;DHT22;13447;57.174;-2.112;2023-09-08T14:02:02;23.20;1.00
25556;DHT22;13447;57.174;-2.112;2023-09-08T14:04:33;23.20;1.00
25556;DHT22;13447;57.174;-2.112;2023-09-08T14:07:06;23.30;1.00
25556;DHT22;13447;57.174;-2.112;2023-09-08T14:09:42;23.40;1.00
25556;DHT22;13447;57.174;-2.112;2023-09-08T14:12:21;23.30;1.00
25556;DHT22;13447;57.174;-2.112;2023-09-08T14:14:49;23.10;1.00
25556;DHT22;13447;57.174;-2.112;2023-09-08T14:17:16;23.00;1.00
25556;DHT22;13447;57.174;-2.112;2023-09-08T14:19:42;23.00;1.00
25556;DHT22;13447;57.174;-2.112;2023-09-08T14:22:09;23.00;1.00
25556;DHT22;13447;57.174;-2.112;2023-09-08T14:24:36;22.90;1.00
25556;DHT22;13447;57.174;-2.112;2023-09-08T14:27:03;22.90;1.00
25556;DHT22;13447;57.174;-2.112;2023-09-08T14:29:32;22.90;1.00
25556;DHT22;13447;57.174;-2.112;2023-09-08T14:31:59;23.10;1.00
25556;DHT22;13447;57.174;-2.112;2023-09-08T14:34:26;23.10;1.00
25556;DHT22;13447;57.174;-2.112;2023-09-08T14:36:53;22.90;1.00
25556;DHT22;13447;57.174;-2.112;2023-09-08T14:39:20;22.90;1.00
25556;DHT22;13447;57.174;-2.112;2023-09-08T14:41:48;22.90;1.00
25556;DHT22;13447;57.174;-2.112;2023-09-08T14:44:16;22.70;1.00
25556;DHT22;13447;57.174;-2.112;2023-09-08T14:46:42;22.70;1.00
25556;DHT22;13447;57.174;-2.112;2023-09-08T14:49:09;22.60;1.00
25556;DHT22;13447;57.174;-2.112;2023-09-08T14:51:36;22.60;1.00
25556;DHT22;13447;57.174;-2.112;2023-09-08T14:54:03;22.60;1.00
25556;DHT22;13447;57.174;-2.112;2023-09-08T14:56:30;22.60;1.00
25556;DHT22;13447;57.174;-2.112;2023-09-08T14:58:57;22.60;1.00
25556;DHT22;13447;57.174;-2.112;2023-09-08T15:01:23;22.60;1.00
25556;DHT22;13447;57.174;-2.112;2023-09-08T15:03:50;22.70;1.00
25556;DHT22;13447;57.174;-2.112;2023-09-08T15:06:17;22.60;1.00
25556;DHT22;13447;57.174;-2.112;2023-09-08T15:08:44;22.70;1.00
25556;DHT22;13447;57.174;-2.112;2023-09-08T15:13:39;22.60;1.00
25556;DHT22;13447;57.174;-2.112;2023-09-08T15:16:06;22.60;1.00
25556;DHT22;13447;57.174;-2.112;2023-09-08T15:18:33;22.50;1.00
25556;DHT22;13447;57.174;-2.112;2023-09-08T15:21:00;22.50;1.00
25556;DHT22;13447;57.174;-2.112;2023-09-08T15:23:27;22.50;1.00
25556;DHT22;13447;57.174;-2.112;2023-09-08T15:25:54;22.40;1.00
25556;DHT22;13447;57.174;-2.112;2023-09-08T15:28:21;22.40;1.00
25556;DHT22;13447;57.174;-2.112;2023-09-08T15:30:48;22.40;1.00
25556;DHT22;13447;57.174;-2.112;2023-09-08T15:33:15;22.40;1.00
25556;DHT22;13447;57.174;-2.112;2023-09-08T15:35:43;22.40;1.00
25556;DHT22;13447;57.174;-2.112;2023-09-08T15:38:09;22.50;1.00
25556;DHT22;13447;57.174;-2.112;2023-09-08T15:40:37;22.40;1.00
25556;DHT22;13447;57.174;-2.112;2023-09-08T15:43:04;22.40;1.00
25556;DHT22;13447;57.174;-2.112;2023-09-08T15:45:30;22.40;1.00
25556;DHT22;13447;57.174;-2.112;2023-09-08T15:47:57;22.40;1.00